sensor_id;sensor_type;location;lat;lon;timestamp;temperature;humidity
21169;DHT22;10742;51.816;8.662;2022-12-18T00:02:28;-3.70;87.40
21169;DHT22;10742;51.816;8.662;2022-12-18T00:05:31;-3.70;87.20
21169;DHT22;10742;51.816;8.662;2022-12-18T00:08:35;-3.70;87.20
21169;DHT22;10742;51.816;8.662;2022-12-18T00:11:38;-3.80;87.20
21169;DHT22;10742;51.816;8.662;2022-12-18T00:14:43;-3.80;87.20
21169;DHT22;10742;51.816;8.662;2022-12-18T00:17:46;-3.80;87.30
21169;DHT22;10742;51.816;8.662;2022-12-18T00:20:48;-3.80;87.40
21169;DHT22;10742;51.816;8.662;2022-12-18T00:23:51;-3.90;87.40
21169;DHT22;10742;51.816;8.662;2022-12-18T00:26:54;-3.90;87.30
21169;DHT22;10742;51.816;8.662;2022-12-18T00:29:56;-3.90;87.20
21169;DHT22;10742;51.816;8.662;2022-12-18T00:32:59;-3.90;87.10
21169;DHT22;10742;51.816;8.662;2022-12-18T00:36:22;-4.00;87.10
21169;DHT22;10742;51.816;8.662;2022-12-18T00:39:26;-4.10;87.20
21169;DHT22;10742;51.816;8.662;2022-12-18T00:42:29;-4.20;87.20
21169;DHT22;10742;51.816;8.662;2022-12-18T00:45:50;-4.20;87.50
21169;DHT22;10742;51.816;8.662;2022-12-18T00:48:53;-4.20;87.80
21169;DHT22;10742;51.816;8.662;2022-12-18T00:51:55;-4.20;87.90
21169;DHT22;10742;51.816;8.662;2022-12-18T00:54:58;-4.20;87.80
21169;DHT22;10742;51.816;8.662;2022-12-18T00:58:03;-4.20;87.80
21169;DHT22;10742;51.816;8.662;2022-12-18T01:01:24;-4.20;87.80
21169;DHT22;10742;51.816;8.662;2022-12-18T01:04:45;-4.20;87.80
21169;DHT22;10742;51.816;8.662;2022-12-18T01:08:07;-4.20;87.70
21169;DHT22;10742;51.816;8.662;2022-12-18T01:11:28;-4.20;87.50
21169;DHT22;10742;51.816;8.662;2022-12-18T01:14:50;-4.20;87.40
21169;DHT22;10742;51.816;8.662;2022-12-18T01:18:11;-4.20;87.40
21169;DHT22;10742;51.816;8.662;2022-12-18T01:21:33;-4.20;87.40
21169;DHT22;10742;51.816;8.662;2022-12-18T01:24:57;-4.30;87.30
21169;DHT22;10742;51.816;8.662;2022-12-18T01:28:18;-4.30;87.20
21169;DHT22;10742;51.816;8.662;2022-12-18T01:31:40;-4.30;87.10
21169;DHT22;10742;51.816;8.662;2022-12-18T01:35:02;-4.40;87.10
21169;DHT22;10742;51.816;8.662;2022-12-18T01:38:24;-4.40;87.10
21169;DHT22;10742;51.816;8.662;2022-12-18T01:41:28;-4.50;87.20
21169;DHT22;10742;51.816;8.662;2022-12-18T01:48:06;-4.50;87.40
21169;DHT22;10742;51.816;8.662;2022-12-18T01:51:11;-4.50;87.50
21169;DHT22;10742;51.816;8.662;2022-12-18T01:54:15;-4.60;87.70
21169;DHT22;10742;51.816;8.662;2022-12-18T01:57:18;-4.60;88.00
21169;DHT22;10742;51.816;8.662;2022-12-18T02:00:22;-4.50;88.20
21169;DHT22;10742;51.816;8.662;2022-12-18T02:03:26;-4.50;88.40
21169;DHT22;10742;51.816;8.662;2022-12-18T02:06:40;-4.50;88.40
21169;DHT22;10742;51.816;8.662;2022-12-18T02:17:06;-4.40;88.20
21169;DHT22;10742;51.816;8.662;2022-12-18T02:23:56;-4.40;88.30
21169;DHT22;10742;51.816;8.662;2022-12-18T02:27:05;-4.40;88.40
21169;DHT22;10742;51.816;8.662;2022-12-18T02:30:09;-4.40;88.40
21169;DHT22;10742;51.816;8.662;2022-12-18T02:33:13;-4.40;88.40
21169;DHT22;10742;51.816;8.662;2022-12-18T02:36:18;-4.30;88.40
21169;DHT22;10742;51.816;8.662;2022-12-18T02:39:25;-4.30;88.30
21169;DHT22;10742;51.816;8.662;2022-12-18T02:42:33;-4.30;88.10
21169;DHT22;10742;51.816;8.662;2022-12-18T02:45:55;-4.30;88.10
21169;DHT22;10742;51.816;8.662;2022-12-18T02:53:24;-4.30;88.60
21169;DHT22;10742;51.816;8.662;2022-12-18T02:56:49;-4.30;88.70
21169;DHT22;10742;51.816;8.662;2022-12-18T03:00:24;-4.20;88.70
21169;DHT22;10742;51.816;8.662;2022-12-18T03:04:07;-4.20;88.90
21169;DHT22;10742;51.816;8.662;2022-12-18T03:07:38;-4.20;88.70
21169;DHT22;10742;51.816;8.662;2022-12-18T03:11:09;-4.20;88.70
21169;DHT22;10742;51.816;8.662;2022-12-18T03:14:34;-4.10;88.70
21169;DHT22;10742;51.816;8.662;2022-12-18T03:18:03;-4.10;88.80
21169;DHT22;10742;51.816;8.662;2022-12-18T03:21:31;-4.10;88.90
21169;DHT22;10742;51.816;8.662;2022-12-18T03:24:56;-4.10;88.90
21169;DHT22;10742;51.816;8.662;2022-12-18T03:28:21;-4.10;88.50
21169;DHT22;10742;51.816;8.662;2022-12-18T03:31:54;-4.10;88.30
21169;DHT22;10742;51.816;8.662;2022-12-18T03:35:29;-4.10;88.30
21169;DHT22;10742;51.816;8.662;2022-12-18T03:38:34;-4.10;88.30
21169;DHT22;10742;51.816;8.662;2022-12-18T03:45:37;-4.20;88.50
21169;DHT22;10742;51.816;8.662;2022-12-18T03:48:48;-4.20;88.50
21169;DHT22;10742;51.816;8.662;2022-12-18T03:55:05;-4.20;88.50
21169;DHT22;10742;51.816;8.662;2022-12-18T03:58:13;-4.20;88.40
21169;DHT22;10742;51.816;8.662;2022-12-18T04:01:34;-4.20;88.50
21169;DHT22;10742;51.816;8.662;2022-12-18T04:04:38;-4.20;88.40
21169;DHT22;10742;51.816;8.662;2022-12-18T04:07:45;-4.20;88.40
21169;DHT22;10742;51.816;8.662;2022-12-18T04:10:48;-4.20;88.60
21169;DHT22;10742;51.816;8.662;2022-12-18T04:13:56;-4.10;88.70
21169;DHT22;10742;51.816;8.662;2022-12-18T04:16:59;-4.10;88.80
21169;DHT22;10742;51.816;8.662;2022-12-18T04:20:06;-4.10;88.80
21169;DHT22;10742;51.816;8.662;2022-12-18T04:23:10;-4.10;88.90
21169;DHT22;10742;51.816;8.662;2022-12-18T04:26:14;-4.10;88.90
21169;DHT22;10742;51.816;8.662;2022-12-18T04:29:54;-4.10;88.90
21169;DHT22;10742;51.816;8.662;2022-12-18T04:32:57;-4.10;88.80
21169;DHT22;10742;51.816;8.662;2022-12-18T04:36:00;-4.10;88.70
21169;DHT22;10742;51.816;8.662;2022-12-18T04:39:03;-4.10;88.70
21169;DHT22;10742;51.816;8.662;2022-12-18T04:42:08;-4.10;88.70
21169;DHT22;10742;51.816;8.662;2022-12-18T04:45:10;-4.10;88.60
21169;DHT22;10742;51.816;8.662;2022-12-18T04:48:13;-4.10;88.70
21169;DHT22;10742;51.816;8.662;2022-12-18T04:51:16;-4.00;88.90
21169;DHT22;10742;51.816;8.662;2022-12-18T04:54:20;-4.00;88.90
21169;DHT22;10742;51.816;8.662;2022-12-18T04:57:23;-4.00;89.00
21169;DHT22;10742;51.816;8.662;2022-12-18T05:00:25;-4.00;89.20
21169;DHT22;10742;51.816;8.662;2022-12-18T05:03:28;-4.00;89.50
21169;DHT22;10742;51.816;8.662;2022-12-18T05:06:31;-3.90;89.70
21169;DHT22;10742;51.816;8.662;2022-12-18T05:09:34;-3.90;89.90
21169;DHT22;10742;51.816;8.662;2022-12-18T05:12:37;-3.90;89.70
21169;DHT22;10742;51.816;8.662;2022-12-18T05:15:59;-3.80;89.60
21169;DHT22;10742;51.816;8.662;2022-12-18T05:19:02;-3.80;89.60
21169;DHT22;10742;51.816;8.662;2022-12-18T05:22:05;-3.80;89.50
21169;DHT22;10742;51.816;8.662;2022-12-18T05:25:08;-3.80;89.30
21169;DHT22;10742;51.816;8.662;2022-12-18T05:28:11;-3.80;89.30
21169;DHT22;10742;51.816;8.662;2022-12-18T05:31:14;-3.80;89.60
21169;DHT22;10742;51.816;8.662;2022-12-18T05:34:17;-3.80;89.80
21169;DHT22;10742;51.816;8.662;2022-12-18T05:37:20;-3.80;90.00
21169;DHT22;10742;51.816;8.662;2022-12-18T05:40:23;-3.80;90.10
21169;DHT22;10742;51.816;8.662;2022-12-18T05:43:27;-3.70;90.20
21169;DHT22;10742;51.816;8.662;2022-12-18T05:46:30;-3.60;90.20
21169;DHT22;10742;51.816;8.662;2022-12-18T05:49:33;-3.60;90.20
21169;DHT22;10742;51.816;8.662;2022-12-18T05:52:36;-3.60;90.20
21169;DHT22;10742;51.816;8.662;2022-12-18T05:55:40;-3.50;90.30
21169;DHT22;10742;51.816;8.662;2022-12-18T05:58:44;-3.50;90.30
21169;DHT22;10742;51.816;8.662;2022-12-18T06:01:46;-3.40;90.50
21169;DHT22;10742;51.816;8.662;2022-12-18T06:04:49;-3.40;90.50
21169;DHT22;10742;51.816;8.662;2022-12-18T06:07:52;-3.30;90.60
21169;DHT22;10742;51.816;8.662;2022-12-18T06:10:55;-3.20;90.60
21169;DHT22;10742;51.816;8.662;2022-12-18T06:13:57;-3.10;90.60
21169;DHT22;10742;51.816;8.662;2022-12-18T06:17:02;-3.10;90.50
21169;DHT22;10742;51.816;8.662;2022-12-18T06:20:04;-3.00;90.50
21169;DHT22;10742;51.816;8.662;2022-12-18T06:23:09;-3.00;90.40
21169;DHT22;10742;51.816;8.662;2022-12-18T06:26:12;-3.00;90.40
21169;DHT22;10742;51.816;8.662;2022-12-18T06:29:16;-3.00;90.40
21169;DHT22;10742;51.816;8.662;2022-12-18T06:32:19;-3.00;90.30
21169;DHT22;10742;51.816;8.662;2022-12-18T06:35:22;-2.90;90.30
21169;DHT22;10742;51.816;8.662;2022-12-18T06:38:25;-2.90;90.30
21169;DHT22;10742;51.816;8.662;2022-12-18T06:41:27;-2.90;90.30
21169;DHT22;10742;51.816;8.662;2022-12-18T06:44:30;-2.90;90.30
21169;DHT22;10742;51.816;8.662;2022-12-18T06:47:32;-2.90;90.30
21169;DHT22;10742;51.816;8.662;2022-12-18T06:50:35;-2.90;90.30
21169;DHT22;10742;51.816;8.662;2022-12-18T06:53:37;-2.90;90.30
21169;DHT22;10742;51.816;8.662;2022-12-18T06:56:42;-2.90;90.40
21169;DHT22;10742;51.816;8.662;2022-12-18T06:59:44;-2.80;90.40
21169;DHT22;10742;51.816;8.662;2022-12-18T07:02:47;-2.80;90.50
21169;DHT22;10742;51.816;8.662;2022-12-18T07:05:49;-2.80;90.50
21169;DHT22;10742;51.816;8.662;2022-12-18T07:08:53;-2.80;90.50
21169;DHT22;10742;51.816;8.662;2022-12-18T07:11:56;-2.70;90.60
21169;DHT22;10742;51.816;8.662;2022-12-18T07:14:58;-2.70;90.50
21169;DHT22;10742;51.816;8.662;2022-12-18T07:18:01;-2.60;90.50
21169;DHT22;10742;51.816;8.662;2022-12-18T07:21:06;-2.60;90.60
21169;DHT22;10742;51.816;8.662;2022-12-18T07:24:09;-2.60;90.80
21169;DHT22;10742;51.816;8.662;2022-12-18T07:27:11;-2.50;90.80
21169;DHT22;10742;51.816;8.662;2022-12-18T07:30:14;-2.40;90.90
21169;DHT22;10742;51.816;8.662;2022-12-18T07:33:17;-2.40;90.90
21169;DHT22;10742;51.816;8.662;2022-12-18T07:36:23;-2.30;91.00
21169;DHT22;10742;51.816;8.662;2022-12-18T07:39:27;-2.30;91.10
21169;DHT22;10742;51.816;8.662;2022-12-18T07:42:30;-2.20;91.10
21169;DHT22;10742;51.816;8.662;2022-12-18T07:45:34;-2.10;91.10
21169;DHT22;10742;51.816;8.662;2022-12-18T07:48:37;-2.00;91.10
21169;DHT22;10742;51.816;8.662;2022-12-18T07:51:41;-1.90;91.10
21169;DHT22;10742;51.816;8.662;2022-12-18T07:54:43;-1.90;91.10
21169;DHT22;10742;51.816;8.662;2022-12-18T07:57:46;-1.80;91.10
21169;DHT22;10742;51.816;8.662;2022-12-18T08:00:53;-1.70;91.20
21169;DHT22;10742;51.816;8.662;2022-12-18T08:03:57;-1.70;91.10
21169;DHT22;10742;51.816;8.662;2022-12-18T08:06:59;-1.50;91.20
21169;DHT22;10742;51.816;8.662;2022-12-18T08:10:02;-1.50;91.10
21169;DHT22;10742;51.816;8.662;2022-12-18T08:13:06;-1.40;91.20
21169;DHT22;10742;51.816;8.662;2022-12-18T08:16:09;-1.40;91.20
21169;DHT22;10742;51.816;8.662;2022-12-18T08:19:11;-1.30;91.20
21169;DHT22;10742;51.816;8.662;2022-12-18T08:22:15;-1.20;91.20
21169;DHT22;10742;51.816;8.662;2022-12-18T08:25:17;-1.10;91.30
21169;DHT22;10742;51.816;8.662;2022-12-18T08:28:20;-1.00;91.40
21169;DHT22;10742;51.816;8.662;2022-12-18T08:31:23;-0.90;91.50
21169;DHT22;10742;51.816;8.662;2022-12-18T08:34:26;-0.80;91.60
21169;DHT22;10742;51.816;8.662;2022-12-18T08:37:29;-0.70;91.70
21169;DHT22;10742;51.816;8.662;2022-12-18T08:40:31;-0.50;92.00
21169;DHT22;10742;51.816;8.662;2022-12-18T08:43:34;-0.40;92.00
21169;DHT22;10742;51.816;8.662;2022-12-18T08:46:55;-0.20;92.40
21169;DHT22;10742;51.816;8.662;2022-12-18T08:49:57;0.10;92.70
21169;DHT22;10742;51.816;8.662;2022-12-18T08:53:00;0.40;92.50
21169;DHT22;10742;51.816;8.662;2022-12-18T08:56:04;0.60;92.10
21169;DHT22;10742;51.816;8.662;2022-12-18T08:59:08;0.80;91.80
21169;DHT22;10742;51.816;8.662;2022-12-18T09:02:13;1.00;91.50
21169;DHT22;10742;51.816;8.662;2022-12-18T09:05:16;1.10;91.30
21169;DHT22;10742;51.816;8.662;2022-12-18T09:08:19;1.20;91.20
21169;DHT22;10742;51.816;8.662;2022-12-18T09:11:24;1.20;91.10
21169;DHT22;10742;51.816;8.662;2022-12-18T09:14:27;1.30;91.00
21169;DHT22;10742;51.816;8.662;2022-12-18T09:17:30;1.40;91.00
21169;DHT22;10742;51.816;8.662;2022-12-18T09:20:33;1.50;91.00
21169;DHT22;10742;51.816;8.662;2022-12-18T09:23:36;1.60;91.00
21169;DHT22;10742;51.816;8.662;2022-12-18T09:26:38;1.60;90.90
21169;DHT22;10742;51.816;8.662;2022-12-18T09:29:41;1.70;90.80
21169;DHT22;10742;51.816;8.662;2022-12-18T09:32:43;1.80;90.80
21169;DHT22;10742;51.816;8.662;2022-12-18T09:35:46;1.80;90.70
21169;DHT22;10742;51.816;8.662;2022-12-18T09:38:49;1.90;90.60
21169;DHT22;10742;51.816;8.662;2022-12-18T09:41:54;1.90;90.60
21169;DHT22;10742;51.816;8.662;2022-12-18T09:44:58;2.00;90.50
21169;DHT22;10742;51.816;8.662;2022-12-18T09:48:01;2.00;90.40
21169;DHT22;10742;51.816;8.662;2022-12-18T09:51:16;2.10;90.40
21169;DHT22;10742;51.816;8.662;2022-12-18T09:54:35;2.20;90.40
21169;DHT22;10742;51.816;8.662;2022-12-18T09:57:45;2.20;90.40
21169;DHT22;10742;51.816;8.662;2022-12-18T10:00:52;2.30;90.50
21169;DHT22;10742;51.816;8.662;2022-12-18T10:03:56;2.40;90.50
21169;DHT22;10742;51.816;8.662;2022-12-18T10:07:13;2.50;90.50
21169;DHT22;10742;51.816;8.662;2022-12-18T10:16:43;2.70;90.20
21169;DHT22;10742;51.816;8.662;2022-12-18T10:20:24;2.80;90.30
21169;DHT22;10742;51.816;8.662;2022-12-18T10:23:56;2.90;90.30
21169;DHT22;10742;51.816;8.662;2022-12-18T10:30:19;3.20;90.20
21169;DHT22;10742;51.816;8.662;2022-12-18T10:33:29;3.30;90.20
21169;DHT22;10742;51.816;8.662;2022-12-18T10:36:32;3.40;90.20
21169;DHT22;10742;51.816;8.662;2022-12-18T10:39:34;3.50;90.20
21169;DHT22;10742;51.816;8.662;2022-12-18T10:42:37;3.60;90.10
21169;DHT22;10742;51.816;8.662;2022-12-18T10:45:41;3.70;90.00
21169;DHT22;10742;51.816;8.662;2022-12-18T10:51:51;3.90;89.30
21169;DHT22;10742;51.816;8.662;2022-12-18T10:55:16;4.00;89.10
21169;DHT22;10742;51.816;8.662;2022-12-18T10:58:37;4.10;87.90
21169;DHT22;10742;51.816;8.662;2022-12-18T11:04:54;4.20;87.60
21169;DHT22;10742;51.816;8.662;2022-12-18T11:07:58;4.20;87.90
21169;DHT22;10742;51.816;8.662;2022-12-18T11:11:09;4.20;87.50
21169;DHT22;10742;51.816;8.662;2022-12-18T11:17:31;4.30;86.90
21169;DHT22;10742;51.816;8.662;2022-12-18T11:20:35;4.30;86.60
21169;DHT22;10742;51.816;8.662;2022-12-18T11:23:50;4.30;86.60
21169;DHT22;10742;51.816;8.662;2022-12-18T11:26:55;4.30;86.10
21169;DHT22;10742;51.816;8.662;2022-12-18T11:33:24;4.30;85.40
21169;DHT22;10742;51.816;8.662;2022-12-18T11:36:33;4.30;86.30
21169;DHT22;10742;51.816;8.662;2022-12-18T11:39:44;4.30;86.10
21169;DHT22;10742;51.816;8.662;2022-12-18T11:42:54;4.30;85.80
21169;DHT22;10742;51.816;8.662;2022-12-18T11:46:23;4.40;85.70
21169;DHT22;10742;51.816;8.662;2022-12-18T11:49:33;4.40;85.30
21169;DHT22;10742;51.816;8.662;2022-12-18T11:52:41;4.40;85.50
21169;DHT22;10742;51.816;8.662;2022-12-18T11:59:29;4.40;85.20
21169;DHT22;10742;51.816;8.662;2022-12-18T12:03:14;4.50;84.90
21169;DHT22;10742;51.816;8.662;2022-12-18T12:20:08;4.60;84.10
21169;DHT22;10742;51.816;8.662;2022-12-18T12:26:45;4.60;84.30
21169;DHT22;10742;51.816;8.662;2022-12-18T12:30:21;4.60;83.70
21169;DHT22;10742;51.816;8.662;2022-12-18T12:36:57;4.60;83.60
21169;DHT22;10742;51.816;8.662;2022-12-18T12:40:04;4.60;83.50
21169;DHT22;10742;51.816;8.662;2022-12-18T12:46:38;4.70;83.30
21169;DHT22;10742;51.816;8.662;2022-12-18T12:49:45;4.70;83.40
21169;DHT22;10742;51.816;8.662;2022-12-18T12:52:53;4.70;83.20
21169;DHT22;10742;51.816;8.662;2022-12-18T12:55:56;4.70;83.30
21169;DHT22;10742;51.816;8.662;2022-12-18T12:59:11;4.70;83.40
21169;DHT22;10742;51.816;8.662;2022-12-18T13:08:56;4.70;83.30
21169;DHT22;10742;51.816;8.662;2022-12-18T13:12:12;4.70;82.20
21169;DHT22;10742;51.816;8.662;2022-12-18T13:18:57;4.80;82.40
21169;DHT22;10742;51.816;8.662;2022-12-18T13:22:01;4.80;82.80
21169;DHT22;10742;51.816;8.662;2022-12-18T13:25:36;4.80;82.70
21169;DHT22;10742;51.816;8.662;2022-12-18T13:31:58;4.80;81.50
21169;DHT22;10742;51.816;8.662;2022-12-18T13:41:28;4.90;82.20
21169;DHT22;10742;51.816;8.662;2022-12-18T13:44:39;4.90;82.10
21169;DHT22;10742;51.816;8.662;2022-12-18T13:47:43;4.90;81.00
21169;DHT22;10742;51.816;8.662;2022-12-18T13:50:53;4.90;81.50
21169;DHT22;10742;51.816;8.662;2022-12-18T13:54:02;4.90;81.00
21169;DHT22;10742;51.816;8.662;2022-12-18T14:00:33;4.90;80.40
21169;DHT22;10742;51.816;8.662;2022-12-18T14:03:36;4.90;81.30
21169;DHT22;10742;51.816;8.662;2022-12-18T14:06:39;4.90;81.20
21169;DHT22;10742;51.816;8.662;2022-12-18T14:09:59;4.90;81.20
21169;DHT22;10742;51.816;8.662;2022-12-18T14:13:10;4.80;80.00
21169;DHT22;10742;51.816;8.662;2022-12-18T14:16:15;4.80;80.70
21169;DHT22;10742;51.816;8.662;2022-12-18T14:19:19;4.80;80.70
21169;DHT22;10742;51.816;8.662;2022-12-18T14:22:24;4.80;81.00
21169;DHT22;10742;51.816;8.662;2022-12-18T14:25:31;4.80;80.80
21169;DHT22;10742;51.816;8.662;2022-12-18T14:28:43;4.70;80.80
21169;DHT22;10742;51.816;8.662;2022-12-18T14:31:46;4.70;80.10
21169;DHT22;10742;51.816;8.662;2022-12-18T14:35:13;4.70;80.80
21169;DHT22;10742;51.816;8.662;2022-12-18T14:41:36;4.60;80.30
21169;DHT22;10742;51.816;8.662;2022-12-18T14:44:39;4.60;80.70
21169;DHT22;10742;51.816;8.662;2022-12-18T14:47:52;4.50;80.60
21169;DHT22;10742;51.816;8.662;2022-12-18T14:51:06;4.50;80.60
21169;DHT22;10742;51.816;8.662;2022-12-18T14:54:17;4.50;79.80
21169;DHT22;10742;51.816;8.662;2022-12-18T14:57:24;4.40;80.10
21169;DHT22;10742;51.816;8.662;2022-12-18T15:00:27;4.40;80.30
21169;DHT22;10742;51.816;8.662;2022-12-18T15:03:31;4.40;80.70
21169;DHT22;10742;51.816;8.662;2022-12-18T15:06:38;4.30;80.50
21169;DHT22;10742;51.816;8.662;2022-12-18T15:09:44;4.30;80.40
21169;DHT22;10742;51.816;8.662;2022-12-18T15:16:11;4.20;80.80
21169;DHT22;10742;51.816;8.662;2022-12-18T15:19:16;4.20;80.40
21169;DHT22;10742;51.816;8.662;2022-12-18T15:22:29;4.20;80.90
21169;DHT22;10742;51.816;8.662;2022-12-18T15:25:36;4.10;80.50
21169;DHT22;10742;51.816;8.662;2022-12-18T15:32:04;4.10;80.70
21169;DHT22;10742;51.816;8.662;2022-12-18T15:35:14;4.10;80.80
21169;DHT22;10742;51.816;8.662;2022-12-18T15:38:16;4.00;81.00
21169;DHT22;10742;51.816;8.662;2022-12-18T15:41:21;4.00;81.30
21169;DHT22;10742;51.816;8.662;2022-12-18T15:44:25;4.00;81.10
21169;DHT22;10742;51.816;8.662;2022-12-18T15:47:28;4.00;81.30
21169;DHT22;10742;51.816;8.662;2022-12-18T15:50:31;4.00;81.30
21169;DHT22;10742;51.816;8.662;2022-12-18T15:53:34;4.00;81.30
21169;DHT22;10742;51.816;8.662;2022-12-18T15:56:37;4.00;81.40
21169;DHT22;10742;51.816;8.662;2022-12-18T15:59:58;4.00;81.50
21169;DHT22;10742;51.816;8.662;2022-12-18T16:03:01;3.90;81.40
21169;DHT22;10742;51.816;8.662;2022-12-18T16:06:05;3.90;81.50
21169;DHT22;10742;51.816;8.662;2022-12-18T16:09:08;3.90;81.50
21169;DHT22;10742;51.816;8.662;2022-12-18T16:12:15;3.90;81.50
21169;DHT22;10742;51.816;8.662;2022-12-18T16:15:19;3.90;81.10
21169;DHT22;10742;51.816;8.662;2022-12-18T16:18:25;3.90;81.50
21169;DHT22;10742;51.816;8.662;2022-12-18T16:21:28;3.90;81.50
21169;DHT22;10742;51.816;8.662;2022-12-18T16:24:35;3.90;81.40
21169;DHT22;10742;51.816;8.662;2022-12-18T16:27:39;3.90;81.40
21169;DHT22;10742;51.816;8.662;2022-12-18T16:30:42;3.90;81.50
21169;DHT22;10742;51.816;8.662;2022-12-18T16:33:46;3.90;81.50
21169;DHT22;10742;51.816;8.662;2022-12-18T16:36:49;3.90;81.50
21169;DHT22;10742;51.816;8.662;2022-12-18T16:39:53;3.90;81.50
21169;DHT22;10742;51.816;8.662;2022-12-18T16:42:56;3.90;81.50
21169;DHT22;10742;51.816;8.662;2022-12-18T16:45:59;3.90;81.50
21169;DHT22;10742;51.816;8.662;2022-12-18T16:49:02;3.90;81.50
21169;DHT22;10742;51.816;8.662;2022-12-18T16:52:06;3.80;81.40
21169;DHT22;10742;51.816;8.662;2022-12-18T16:55:09;3.80;81.50
21169;DHT22;10742;51.816;8.662;2022-12-18T16:58:12;3.90;81.70
21169;DHT22;10742;51.816;8.662;2022-12-18T17:01:15;3.80;81.60
21169;DHT22;10742;51.816;8.662;2022-12-18T17:04:19;3.80;81.50
21169;DHT22;10742;51.816;8.662;2022-12-18T17:07:23;3.90;81.50
21169;DHT22;10742;51.816;8.662;2022-12-18T17:10:25;3.80;81.50
21169;DHT22;10742;51.816;8.662;2022-12-18T17:13:28;3.80;81.50
21169;DHT22;10742;51.816;8.662;2022-12-18T17:16:30;3.90;81.50
21169;DHT22;10742;51.816;8.662;2022-12-18T17:19:33;3.80;81.50
21169;DHT22;10742;51.816;8.662;2022-12-18T17:22:36;3.80;81.40
21169;DHT22;10742;51.816;8.662;2022-12-18T17:25:39;3.80;81.40
21169;DHT22;10742;51.816;8.662;2022-12-18T17:28:42;3.80;81.50
21169;DHT22;10742;51.816;8.662;2022-12-18T17:31:45;3.80;81.50
21169;DHT22;10742;51.816;8.662;2022-12-18T17:34:48;3.80;81.40
21169;DHT22;10742;51.816;8.662;2022-12-18T17:37:51;3.80;81.50
21169;DHT22;10742;51.816;8.662;2022-12-18T17:41:03;3.70;81.30
21169;DHT22;10742;51.816;8.662;2022-12-18T17:44:07;3.70;81.00
21169;DHT22;10742;51.816;8.662;2022-12-18T17:47:11;3.70;81.30
21169;DHT22;10742;51.816;8.662;2022-12-18T17:50:15;3.70;81.30
21169;DHT22;10742;51.816;8.662;2022-12-18T17:53:18;3.60;81.40
21169;DHT22;10742;51.816;8.662;2022-12-18T17:56:22;3.60;81.30
21169;DHT22;10742;51.816;8.662;2022-12-18T17:59:25;3.60;81.30
21169;DHT22;10742;51.816;8.662;2022-12-18T18:02:27;3.60;81.50
21169;DHT22;10742;51.816;8.662;2022-12-18T18:05:30;3.50;81.30
21169;DHT22;10742;51.816;8.662;2022-12-18T18:08:35;3.50;81.40
21169;DHT22;10742;51.816;8.662;2022-12-18T18:11:38;3.50;81.50
21169;DHT22;10742;51.816;8.662;2022-12-18T18:14:59;3.50;81.60
21169;DHT22;10742;51.816;8.662;2022-12-18T18:18:02;3.50;81.50
21169;DHT22;10742;51.816;8.662;2022-12-18T18:21:08;3.50;81.60
21169;DHT22;10742;51.816;8.662;2022-12-18T18:24:12;3.50;82.00
21169;DHT22;10742;51.816;8.662;2022-12-18T18:27:15;3.50;82.00
21169;DHT22;10742;51.816;8.662;2022-12-18T18:30:18;3.60;82.00
21169;DHT22;10742;51.816;8.662;2022-12-18T18:33:20;3.60;81.90
21169;DHT22;10742;51.816;8.662;2022-12-18T18:36:23;3.60;81.90
21169;DHT22;10742;51.816;8.662;2022-12-18T18:39:27;3.60;81.90
21169;DHT22;10742;51.816;8.662;2022-12-18T18:42:30;3.60;81.90
21169;DHT22;10742;51.816;8.662;2022-12-18T18:45:34;3.60;81.90
21169;DHT22;10742;51.816;8.662;2022-12-18T18:48:37;3.60;81.90
21169;DHT22;10742;51.816;8.662;2022-12-18T18:51:42;3.60;81.90
21169;DHT22;10742;51.816;8.662;2022-12-18T18:54:46;3.60;82.00
21169;DHT22;10742;51.816;8.662;2022-12-18T18:58:05;3.60;82.00
21169;DHT22;10742;51.816;8.662;2022-12-18T19:01:16;3.60;82.10
21169;DHT22;10742;51.816;8.662;2022-12-18T19:04:20;3.50;81.90
21169;DHT22;10742;51.816;8.662;2022-12-18T19:07:23;3.50;82.10
21169;DHT22;10742;51.816;8.662;2022-12-18T19:10:26;3.50;82.20
21169;DHT22;10742;51.816;8.662;2022-12-18T19:13:31;3.50;82.20
21169;DHT22;10742;51.816;8.662;2022-12-18T19:16:35;3.50;82.20
21169;DHT22;10742;51.816;8.662;2022-12-18T19:19:38;3.50;82.30
21169;DHT22;10742;51.816;8.662;2022-12-18T19:22:40;3.50;82.40
21169;DHT22;10742;51.816;8.662;2022-12-18T19:25:43;3.50;82.50
21169;DHT22;10742;51.816;8.662;2022-12-18T19:28:46;3.40;82.50
21169;DHT22;10742;51.816;8.662;2022-12-18T19:31:49;3.40;82.70
21169;DHT22;10742;51.816;8.662;2022-12-18T19:34:52;3.40;82.80
21169;DHT22;10742;51.816;8.662;2022-12-18T19:37:55;3.40;82.90
21169;DHT22;10742;51.816;8.662;2022-12-18T19:40:58;3.40;82.80
21169;DHT22;10742;51.816;8.662;2022-12-18T19:44:01;3.40;82.80
21169;DHT22;10742;51.816;8.662;2022-12-18T19:47:03;3.40;82.80
21169;DHT22;10742;51.816;8.662;2022-12-18T19:50:07;3.40;82.90
21169;DHT22;10742;51.816;8.662;2022-12-18T19:53:10;3.40;83.00
21169;DHT22;10742;51.816;8.662;2022-12-18T19:56:16;3.40;83.00
21169;DHT22;10742;51.816;8.662;2022-12-18T19:59:19;3.30;83.00
21169;DHT22;10742;51.816;8.662;2022-12-18T20:02:21;3.30;83.10
21169;DHT22;10742;51.816;8.662;2022-12-18T20:05:24;3.30;83.20
21169;DHT22;10742;51.816;8.662;2022-12-18T20:08:27;3.30;83.30
21169;DHT22;10742;51.816;8.662;2022-12-18T20:11:32;3.30;83.30
21169;DHT22;10742;51.816;8.662;2022-12-18T20:14:35;3.30;83.40
21169;DHT22;10742;51.816;8.662;2022-12-18T20:17:38;3.30;84.20
21169;DHT22;10742;51.816;8.662;2022-12-18T20:20:41;3.30;83.50
21169;DHT22;10742;51.816;8.662;2022-12-18T20:23:44;3.30;83.60
21169;DHT22;10742;51.816;8.662;2022-12-18T20:26:46;3.30;83.60
21169;DHT22;10742;51.816;8.662;2022-12-18T20:29:49;3.30;83.70
21169;DHT22;10742;51.816;8.662;2022-12-18T20:32:52;3.30;83.80
21169;DHT22;10742;51.816;8.662;2022-12-18T20:36:03;3.30;83.90
21169;DHT22;10742;51.816;8.662;2022-12-18T20:39:07;3.30;84.00
21169;DHT22;10742;51.816;8.662;2022-12-18T20:42:10;3.30;84.00
21169;DHT22;10742;51.816;8.662;2022-12-18T20:45:32;3.30;84.20
21169;DHT22;10742;51.816;8.662;2022-12-18T20:48:55;3.30;84.30
21169;DHT22;10742;51.816;8.662;2022-12-18T20:52:16;3.30;84.30
21169;DHT22;10742;51.816;8.662;2022-12-18T20:55:19;3.30;84.50
21169;DHT22;10742;51.816;8.662;2022-12-18T20:58:22;3.30;84.50
21169;DHT22;10742;51.816;8.662;2022-12-18T21:01:26;3.30;84.60
21169;DHT22;10742;51.816;8.662;2022-12-18T21:04:29;3.30;84.60
21169;DHT22;10742;51.816;8.662;2022-12-18T21:07:32;3.30;84.70
21169;DHT22;10742;51.816;8.662;2022-12-18T21:10:34;3.30;84.80
21169;DHT22;10742;51.816;8.662;2022-12-18T21:13:37;3.30;84.90
21169;DHT22;10742;51.816;8.662;2022-12-18T21:16:40;3.30;84.90
21169;DHT22;10742;51.816;8.662;2022-12-18T21:19:44;3.30;85.10
21169;DHT22;10742;51.816;8.662;2022-12-18T21:22:47;3.30;85.20
21169;DHT22;10742;51.816;8.662;2022-12-18T21:25:50;3.30;85.30
21169;DHT22;10742;51.816;8.662;2022-12-18T21:28:54;3.30;85.30
21169;DHT22;10742;51.816;8.662;2022-12-18T21:31:57;3.30;85.40
21169;DHT22;10742;51.816;8.662;2022-12-18T21:35:00;3.30;85.40
21169;DHT22;10742;51.816;8.662;2022-12-18T21:38:03;3.30;85.40
21169;DHT22;10742;51.816;8.662;2022-12-18T21:41:07;3.30;85.40
21169;DHT22;10742;51.816;8.662;2022-12-18T21:44:12;3.30;85.40